Time;durP1;ratioP1;P1;durP2;ratioP2;P2;SDS_P1;SDS_P2;PMS_P1;PMS_P2;Temp;Humidity;BMP_temperature;BMP_pressure;BME280_temperature;BME280_humidity;BME280_pressure;Samples;Min_cycle;Max_cycle;Signal;HPM_P1;HPM_P2
2023/01/21 00:00:10;;;;;;;6.3;4.9;;;;;;;-1.33;92.4873;937.625;;;;
2023/01/21 00:02:37;;;;;;;7.3;5.8;;;;;;;-1.23;91.93359;937.688;;;;
2023/01/21 00:05:05;;;;;;;11.4;7.1;;;;;;;-1.17;91.47754;937.6535;;;;
2023/01/21 00:07:47;;;;;;;6.8;5.2;;;;;;;-1.05;91.06055;937.7004;;;;
2023/01/21 00:10:20;;;;;;;10.2;6.9;;;;;;;-0.96;90.72559;937.6931;;;;
2023/01/21 00:12:52;;;;;;;10.1;7;;;;;;;-0.89;90.79297;937.6728;;;;
2023/01/21 00:15:40;;;;;;;11.7;8.1;;;;;;;-0.78;90.15137;937.5783;;;;
2023/01/21 00:18:08;;;;;;;11.4;8.5;;;;;;;-0.63;89.42773;937.6744;;;;
2023/01/21 00:20:40;;;;;;;12.4;8.6;;;;;;;-0.58;89.19238;937.7061;;;;
2023/01/21 00:23:06;;;;;;;11.9;8.7;;;;;;;-0.64;88.69238;937.6805;;;;
2023/01/21 00:25:54;;;;;;;11.7;8.6;;;;;;;-0.57;88.57129;937.6277;;;;
2023/01/21 00:28:32;;;;;;;11.7;8.3;;;;;;;-0.6;88.63281;937.6635;;;;
2023/01/21 00:31:03;;;;;;;11;8.5;;;;;;;-0.88;89.53027;937.7158;;;;
2023/01/21 00:33:36;;;;;;;12.8;9;;;;;;;-0.85;90.51367;937.6889;;;;
2023/01/21 00:36:12;;;;;;;14;8.8;;;;;;;-0.64;89.98047;937.6545;;;;
2023/01/21 00:38:37;;;;;;;12.4;9.3;;;;;;;-0.78;89.97363;937.7377;;;;
2023/01/21 00:41:05;;;;;;;13.6;9.2;;;;;;;-0.69;89.99316;937.7255;;;;
2023/01/21 00:43:34;;;;;;;11.6;8.9;;;;;;;-0.74;89.80566;937.7317;;;;
2023/01/21 00:45:59;;;;;;;12.5;9.5;;;;;;;-0.75;89.70117;937.7247;;;;
2023/01/21 00:48:27;;;;;;;13.1;9;;;;;;;-0.78;90.16211;937.6586;;;;
2023/01/21 00:51:25;;;;;;;12.7;9.3;;;;;;;-0.57;89.69531;937.7131;;;;
2023/01/21 00:54:25;;;;;;;12.8;8.9;;;;;;;-0.49;89.04492;937.6811;;;;
2023/01/21 00:56:44;;;;;;;12.9;9.5;;;;;;;-0.72;89.19531;937.6199;;;;
2023/01/21 00:59:35;;;;;;;14;9.2;;;;;;;-0.82;89.56348;937.7117;;;;
2023/01/21 01:02:06;;;;;;;14;9.3;;;;;;;-0.67;89.49609;937.6788;;;;
2023/01/21 01:04:37;;;;;;;13.1;9.6;;;;;;;-0.81;89.73438;937.7288;;;;
2023/01/21 01:07:02;;;;;;;14.2;9.4;;;;;;;-0.68;89.67188;937.7032;;;;
2023/01/21 01:09:30;;;;;;;14;9.9;;;;;;;-0.62;89.47461;937.7012;;;;
2023/01/21 01:11:56;;;;;;;15;9.9;;;;;;;-0.53;89.08203;937.6588;;;;
2023/01/21 01:14:23;;;;;;;13.8;10.1;;;;;;;-0.58;89.07031;937.7327;;;;
2023/01/21 01:16:47;;;;;;;14.7;10.9;;;;;;;-0.77;89.56445;937.7561;;;;
2023/01/21 01:21:58;;;;;;;15;10.4;;;;;;;-0.68;89.53906;937.8027;;;;
2023/01/21 01:24:23;;;;;;;14.7;10.1;;;;;;;-0.77;89.71973;937.8358;;;;
2023/01/21 01:26:49;;;;;;;15.4;11.1;;;;;;;-0.67;89.71875;937.7891;;;;
2023/01/21 01:29:14;;;;;;;15.4;10.7;;;;;;;-0.62;89.43945;937.8307;;;;
2023/01/21 01:31:43;;;;;;;15.4;10.7;;;;;;;-0.62;89.16309;937.845;;;;
2023/01/21 01:34:07;;;;;;;15.1;10.9;;;;;;;-0.88;90.15234;937.8968;;;;
2023/01/21 01:36:35;;;;;;;16;11;;;;;;;-0.79;89.77148;937.883;;;;
2023/01/21 01:39:00;;;;;;;14.8;10.7;;;;;;;-0.61;89.6875;937.8616;;;;
2023/01/21 01:41:30;;;;;;;14.7;10.6;;;;;;;-0.64;89.43555;937.8656;;;;
2023/01/21 01:44:02;;;;;;;14.7;11.1;;;;;;;-0.57;89.13867;937.8764;;;;
2023/01/21 01:46:27;;;;;;;15.7;11.1;;;;;;;-0.44;88.80078;937.8588;;;;
2023/01/21 01:52:49;;;;;;;15.6;10.6;;;;;;;-0.47;88.72852;937.8708;;;;
2023/01/21 01:55:20;;;;;;;15.9;11.1;;;;;;;-0.59;88.5127;937.8272;;;;
2023/01/21 01:57:49;;;;;;;14.5;10.5;;;;;;;-0.59;88.62207;937.8479;;;;
2023/01/21 02:00:16;;;;;;;15.3;10.7;;;;;;;-0.69;89.16992;937.8349;;;;
2023/01/21 02:02:41;;;;;;;13.9;9.9;;;;;;;-0.86;89.8252;937.8527;;;;
2023/01/21 02:05:07;;;;;;;15.7;11.1;;;;;;;-0.93;90.2207;937.8694;;;;
2023/01/21 02:07:32;;;;;;;13.7;10.2;;;;;;;-0.96;90.48145;937.8267;;;;
2023/01/21 02:10:00;;;;;;;15;10.9;;;;;;;-0.81;90.39063;937.8147;;;;
2023/01/21 02:12:26;;;;;;;15.8;11.3;;;;;;;-0.62;89.97461;937.7559;;;;
2023/01/21 02:14:51;;;;;;;15.7;10.7;;;;;;;-0.53;89.4375;937.8198;;;;
2023/01/21 02:17:20;;;;;;;18.6;11.5;;;;;;;-0.6;89.41113;937.8251;;;;
2023/01/21 02:19:49;;;;;;;16.4;10.8;;;;;;;-0.61;89.2334;937.7908;;;;
2023/01/21 02:23:17;;;;;;;16.2;11.5;;;;;;;-0.69;89.46094;937.8258;;;;
2023/01/21 02:25:42;;;;;;;15.7;10.7;;;;;;;-0.6;88.97754;937.8101;;;;
2023/01/21 02:28:08;;;;;;;16.7;11.5;;;;;;;-0.96;89.70117;937.7506;;;;
2023/01/21 02:30:33;;;;;;;17.3;11.3;;;;;;;-0.85;90.46973;937.7063;;;;
2023/01/21 02:32:59;;;;;;;15.8;10.9;;;;;;;-0.72;89.77344;937.8106;;;;
2023/01/21 02:35:28;;;;;;;15.9;11.3;;;;;;;-0.71;90;937.8276;;;;
2023/01/21 02:37:54;;;;;;;16.4;11.5;;;;;;;-0.56;89.62109;937.8083;;;;
2023/01/21 02:40:19;;;;;;;15.7;11.5;;;;;;;-0.52;89.33984;937.8354;;;;
2023/01/21 02:42:50;;;;;;;16.5;11.4;;;;;;;-0.65;89.26855;937.6715;;;;
2023/01/21 02:45:19;;;;;;;16.8;11.2;;;;;;;-0.62;89.45215;937.8153;;;;
2023/01/21 02:47:45;;;;;;;18.2;11.9;;;;;;;-0.63;89.57227;937.8317;;;;
2023/01/21 02:50:11;;;;;;;16.4;11.7;;;;;;;-0.68;89.71875;937.8364;;;;
2023/01/21 02:52:37;;;;;;;17.4;11.6;;;;;;;-0.87;89.97461;937.8074;;;;
2023/01/21 02:55:06;;;;;;;15.5;10.6;;;;;;;-0.79;90.08301;937.7503;;;;
2023/01/21 02:57:32;;;;;;;14.5;10.5;;;;;;;-0.76;90.2666;937.8439;;;;
2023/01/21 02:59:57;;;;;;;14.8;10.6;;;;;;;-0.75;90.00195;937.7966;;;;
2023/01/21 03:02:22;;;;;;;15.3;10.5;;;;;;;-0.82;90.34375;937.7595;;;;
2023/01/21 03:04:47;;;;;;;14.5;10.2;;;;;;;-0.9;90.50391;937.8022;;;;
2023/01/21 03:07:13;;;;;;;17.2;11.7;;;;;;;-0.91;90.78027;937.8002;;;;
2023/01/21 03:09:38;;;;;;;14.7;11.1;;;;;;;-0.76;90.56836;937.8135;;;;
2023/01/21 03:12:09;;;;;;;15.4;11.1;;;;;;;-0.84;90.38281;937.7941;;;;
2023/01/21 03:17:05;;;;;;;15.2;10.4;;;;;;;-1.01;90.25879;937.7791;;;;
2023/01/21 03:19:31;;;;;;;16.1;11.1;;;;;;;-0.87;90.30762;937.6691;;;;
2023/01/21 03:22:28;;;;;;;16.7;10.9;;;;;;;-0.76;90.05762;937.7332;;;;
2023/01/21 03:24:53;;;;;;;15.4;10.4;;;;;;;-0.81;89.92285;937.7756;;;;
2023/01/21 03:27:18;;;;;;;16.3;10.6;;;;;;;-0.85;89.87109;937.7416;;;;
2023/01/21 03:29:43;;;;;;;15.7;10.5;;;;;;;-0.83;90.04199;937.7614;;;;
2023/01/21 03:32:08;;;;;;;15.7;10.4;;;;;;;-0.85;89.93555;937.8064;;;;
2023/01/21 03:34:34;;;;;;;14.8;10.1;;;;;;;-0.71;89.72168;937.7567;;;;
2023/01/21 03:36:59;;;;;;;14.9;10;;;;;;;-0.93;89.82031;937.7601;;;;
2023/01/21 03:40:41;;;;;;;13.2;9.6;;;;;;;-0.88;89.95215;937.7992;;;;
2023/01/21 03:42:51;;;;;;;14.6;10.2;;;;;;;-0.69;89.72363;937.7606;;;;
2023/01/21 03:45:20;;;;;;;17.7;11.4;;;;;;;-0.8;89.50293;937.7383;;;;
2023/01/21 03:47:45;;;;;;;14.7;10.7;;;;;;;-0.83;90.01953;937.7377;;;;
2023/01/21 03:50:12;;;;;;;15.1;10.2;;;;;;;-0.78;89.88477;937.6978;;;;
2023/01/21 03:52:37;;;;;;;14.8;10.5;;;;;;;-0.73;89.46289;937.6243;;;;
2023/01/21 03:55:07;;;;;;;14.5;10.3;;;;;;;-0.95;89.81641;937.6827;;;;
2023/01/21 03:57:36;;;;;;;14.9;11;;;;;;;-0.94;89.98535;937.7598;;;;
2023/01/21 04:00:01;;;;;;;16.5;10.8;;;;;;;-0.9;89.91504;937.6891;;;;
2023/01/21 04:02:40;;;;;;;17.1;11.5;;;;;;;-0.81;89.35645;937.7241;;;;
2023/01/21 04:05:16;;;;;;;17.8;11;;;;;;;-0.89;88.9834;937.6424;;;;
2023/01/21 04:07:48;;;;;;;16.6;11.1;;;;;;;-1.12;89.66699;937.6827;;;;
2023/01/21 04:10:33;;;;;;;17.3;11.4;;;;;;;-1.02;89.51074;937.6394;;;;
2023/01/21 04:13:03;;;;;;;17.2;11.4;;;;;;;-1.18;89.50879;937.668;;;;
2023/01/21 04:15:28;;;;;;;17.3;11;;;;;;;-1.41;90.08301;937.6516;;;;
2023/01/21 04:21:27;;;;;;;17.1;11.7;;;;;;;-1.12;89.94629;937.7048;;;;
2023/01/21 04:23:55;;;;;;;17.1;11.8;;;;;;;-0.98;89.48633;937.6599;;;;
2023/01/21 04:26:20;;;;;;;18.4;11.8;;;;;;;-1.01;89.02539;937.6846;;;;
2023/01/21 04:28:45;;;;;;;18.2;11.6;;;;;;;-1.05;89.27148;937.6003;;;;
2023/01/21 04:31:13;;;;;;;16.9;11.2;;;;;;;-1.27;89.95801;937.6576;;;;
2023/01/21 04:33:38;;;;;;;17.3;11.8;;;;;;;-1.24;90.16602;937.6219;;;;
2023/01/21 04:36:03;;;;;;;18.2;11.9;;;;;;;-1.23;90.33203;937.6269;;;;
2023/01/21 04:38:31;;;;;;;18.5;12.1;;;;;;;-1.09;89.99902;937.6088;;;;
2023/01/21 04:41:30;;;;;;;17.5;12.1;;;;;;;-1.14;89.6875;937.5959;;;;
2023/01/21 04:44:40;;;;;;;17.5;12.4;;;;;;;-1.1;89.72656;937.519;;;;
2023/01/21 04:47:14;;;;;;;17.1;11.8;;;;;;;-1.3;90.25;937.5098;;;;
2023/01/21 04:49:44;;;;;;;17;11.5;;;;;;;-1.14;89.97656;937.6344;;;;
2023/01/21 04:52:10;;;;;;;16.3;11.2;;;;;;;-1.23;89.89941;937.5331;;;;
2023/01/21 04:54:38;;;;;;;17.4;11.8;;;;;;;-1.2;89.72754;937.6344;;;;
2023/01/21 04:57:03;;;;;;;18.1;11.8;;;;;;;-1.13;89.77637;937.6565;;;;
2023/01/21 04:59:32;;;;;;;17.6;12;;;;;;;-1.25;90.1748;937.6183;;;;
2023/01/21 05:01:57;;;;;;;16.6;11.8;;;;;;;-1.15;90.0498;937.6877;;;;
2023/01/21 05:04:24;;;;;;;16.3;11.4;;;;;;;-1.18;90.20898;937.7039;;;;
2023/01/21 05:06:50;;;;;;;16.1;11.2;;;;;;;-1.09;90.16504;937.6964;;;;
2023/01/21 05:09:20;;;;;;;17.4;11.3;;;;;;;-1.12;90.21094;937.7617;;;;
2023/01/21 05:11:48;;;;;;;17.7;11.7;;;;;;;-1.12;90.05566;937.7133;;;;
2023/01/21 05:14:13;;;;;;;19.1;12.2;;;;;;;-1.02;89.89941;937.7402;;;;
2023/01/21 05:16:41;;;;;;;18.7;11.7;;;;;;;-0.95;89.7373;937.7344;;;;
2023/01/21 05:19:06;;;;;;;19.8;12.4;;;;;;;-1;89.90332;937.7921;;;;
2023/01/21 05:21:34;;;;;;;18.1;12.2;;;;;;;-0.88;89.27441;937.7133;;;;
2023/01/21 05:23:59;;;;;;;16.5;12.2;;;;;;;-0.84;89.21484;937.7566;;;;
2023/01/21 05:26:27;;;;;;;18.4;12.8;;;;;;;-0.89;89.15039;937.7706;;;;
2023/01/21 05:28:58;;;;;;;17.1;11.7;;;;;;;-1.05;89.28223;937.7897;;;;
2023/01/21 05:31:28;;;;;;;16.6;12.1;;;;;;;-1.12;89.82422;937.8439;;;;
2023/01/21 05:33:54;;;;;;;18.7;12.5;;;;;;;-1.05;89.91602;937.7631;;;;
2023/01/21 05:36:23;;;;;;;18.1;12.6;;;;;;;-0.91;89.55762;937.8242;;;;
2023/01/21 05:39:12;;;;;;;18.9;12.7;;;;;;;-0.9;89.24609;937.7888;;;;
2023/01/21 05:41:45;;;;;;;17;11.6;;;;;;;-0.9;89.05762;937.7779;;;;
2023/01/21 05:44:15;;;;;;;18.5;12.8;;;;;;;-0.97;89.2793;937.8817;;;;
2023/01/21 05:46:40;;;;;;;18.1;12.1;;;;;;;-0.94;89.0498;937.904;;;;
2023/01/21 05:49:07;;;;;;;18.1;12.4;;;;;;;-0.9;89.02441;937.813;;;;
2023/01/21 05:51:32;;;;;;;19.3;13;;;;;;;-0.9;88.95898;937.8797;;;;
2023/01/21 05:54:00;;;;;;;18.9;13;;;;;;;-0.88;88.77441;937.8898;;;;
2023/01/21 05:56:26;;;;;;;19.4;12.9;;;;;;;-0.9;88.64648;937.8817;;;;
2023/01/21 05:58:54;;;;;;;18.4;12.1;;;;;;;-0.92;88.74219;937.8997;;;;
2023/01/21 06:01:19;;;;;;;19.4;12.1;;;;;;;-0.94;88.76074;937.9236;;;;
2023/01/21 06:03:52;;;;;;;18.5;12.7;;;;;;;-0.98;88.93066;937.9263;;;;
2023/01/21 06:06:23;;;;;;;21.2;13.4;;;;;;;-1.02;89.22168;937.9582;;;;
2023/01/21 06:09:13;;;;;;;20.2;13.3;;;;;;;-1.1;89.38184;937.9182;;;;
2023/01/21 06:11:40;;;;;;;18.5;12.9;;;;;;;-1.29;89.58789;937.9448;;;;
2023/01/21 06:14:06;;;;;;;21;13.2;;;;;;;-1.42;90.41406;937.9453;;;;
2023/01/21 06:16:31;;;;;;;19.1;13.2;;;;;;;-1.49;90.91992;938.0809;;;;
2023/01/21 06:19:00;;;;;;;19.7;13.2;;;;;;;-1.41;91.11523;938.038;;;;
2023/01/21 06:21:26;;;;;;;20.9;13.7;;;;;;;-1.47;91.29199;938.0317;;;;
2023/01/21 06:23:54;;;;;;;21.8;14;;;;;;;-1.49;91.18652;937.9619;;;;
2023/01/21 06:26:42;;;;;;;21.7;13.8;;;;;;;-1.51;91.34863;938.0436;;;;
2023/01/21 06:32:37;;;;;;;20.8;13.8;;;;;;;-1.39;91.57617;938.0694;;;;
2023/01/21 06:35:03;;;;;;;21.6;14.7;;;;;;;-1.42;91.39258;938.1072;;;;
2023/01/21 06:37:35;;;;;;;21;13.7;;;;;;;-1.46;91.66992;938.1344;;;;
2023/01/21 06:40:00;;;;;;;21.4;13.7;;;;;;;-1.42;91.47949;938.1569;;;;
2023/01/21 06:42:32;;;;;;;20.2;13.5;;;;;;;-1.52;91.40234;938.2123;;;;
2023/01/21 06:44:57;;;;;;;23.4;14.6;;;;;;;-1.47;91.5918;938.2332;;;;
2023/01/21 06:47:22;;;;;;;22.6;14.2;;;;;;;-1.39;91.73145;938.1887;;;;
2023/01/21 06:49:54;;;;;;;21.8;14.9;;;;;;;-1.37;91.31348;938.2208;;;;
2023/01/21 06:52:23;;;;;;;21.7;14;;;;;;;-1.28;91.13379;938.3228;;;;
2023/01/21 06:54:48;;;;;;;20.7;13.9;;;;;;;-1.26;90.83789;938.2417;;;;
2023/01/21 06:57:19;;;;;;;22.8;14.3;;;;;;;-1.25;90.58594;938.2447;;;;
2023/01/21 06:59:46;;;;;;;20.5;13.5;;;;;;;-1.22;90.26953;938.3072;;;;
2023/01/21 07:02:11;;;;;;;22.4;13.7;;;;;;;-1.16;89.99219;938.3158;;;;
2023/01/21 07:04:39;;;;;;;20.1;13;;;;;;;-1.24;89.89941;938.278;;;;
2023/01/21 07:07:04;;;;;;;21;13.3;;;;;;;-1.52;90.17285;938.4149;;;;
2023/01/21 07:09:32;;;;;;;21.6;13.8;;;;;;;-1.54;90.68848;938.4464;;;;
2023/01/21 07:12:01;;;;;;;21.7;14.1;;;;;;;-1.68;90.91211;938.433;;;;
2023/01/21 07:14:26;;;;;;;21.2;13.8;;;;;;;-1.76;91.14941;938.4628;;;;
2023/01/21 07:16:55;;;;;;;22.7;14.6;;;;;;;-1.83;91.45801;938.4939;;;;
2023/01/21 07:19:20;;;;;;;22.7;14.3;;;;;;;-1.88;91.73438;938.5372;;;;
2023/01/21 07:21:47;;;;;;;24.5;15.5;;;;;;;-1.86;91.94922;938.6211;;;;
2023/01/21 07:24:12;;;;;;;25.6;15.2;;;;;;;-1.85;92.05273;938.7053;;;;
2023/01/21 07:26:37;;;;;;;20.4;14.2;;;;;;;-1.73;91.73633;938.6764;;;;
2023/01/21 07:29:02;;;;;;;22.6;14.3;;;;;;;-1.63;91.84473;938.6178;;;;
2023/01/21 07:31:27;;;;;;;20.1;14.2;;;;;;;-1.48;91.38867;938.6096;;;;
2023/01/21 07:33:54;;;;;;;20.5;13.9;;;;;;;-1.34;91.38672;938.6397;;;;
2023/01/21 07:36:19;;;;;;;21.1;14;;;;;;;-1.3;90.75;938.6588;;;;
2023/01/21 07:38:46;;;;;;;20.2;13.9;;;;;;;-1.22;90.32324;938.6443;;;;
2023/01/21 07:41:11;;;;;;;19.9;13.1;;;;;;;-1.14;89.97461;938.6325;;;;
2023/01/21 07:43:38;;;;;;;20.9;13;;;;;;;-1.07;89.66699;938.6716;;;;
2023/01/21 07:46:03;;;;;;;19.8;13.3;;;;;;;-1.09;89.44336;938.7104;;;;
2023/01/21 07:48:28;;;;;;;19.7;13.2;;;;;;;-1.04;89.27539;938.7269;;;;
2023/01/21 07:50:56;;;;;;;19.6;12.4;;;;;;;-0.99;89.18262;938.75;;;;
2023/01/21 07:53:21;;;;;;;18.3;12.6;;;;;;;-0.86;89.05566;938.7241;;;;
2023/01/21 07:55:49;;;;;;;19.8;13;;;;;;;-0.7;88.43359;938.7244;;;;
2023/01/21 07:58:13;;;;;;;20.1;13.1;;;;;;;-0.72;88.2168;938.7237;;;;
2023/01/21 08:00:42;;;;;;;18.5;12.6;;;;;;;-0.6;87.6875;938.7127;;;;
2023/01/21 08:03:07;;;;;;;17.3;11.7;;;;;;;-0.55;86.90918;938.6337;;;;
2023/01/21 08:05:34;;;;;;;17.2;11.4;;;;;;;-0.5;86.63965;938.6119;;;;
2023/01/21 08:07:59;;;;;;;16.5;11;;;;;;;-0.46;85.77051;938.6618;;;;
2023/01/21 08:10:29;;;;;;;15.3;10.2;;;;;;;-0.56;85.03613;938.6454;;;;
2023/01/21 08:12:54;;;;;;;14.9;10.4;;;;;;;-0.56;85.01563;938.6575;;;;
2023/01/21 08:15:24;;;;;;;14.1;10;;;;;;;-0.79;85.84668;938.6843;;;;
2023/01/21 08:17:49;;;;;;;17.3;11.6;;;;;;;-0.9;86.34668;938.7447;;;;
2023/01/21 08:20:28;;;;;;;14.5;10.1;;;;;;;-0.86;86.53418;938.7219;;;;
2023/01/21 08:22:55;;;;;;;15.7;10.8;;;;;;;-0.58;86.34473;938.6694;;;;
2023/01/21 08:25:21;;;;;;;15.8;10.5;;;;;;;-0.43;85.62012;938.6834;;;;
2023/01/21 08:27:50;;;;;;;15.7;10.3;;;;;;;-0.35;85.10156;938.715;;;;
2023/01/21 08:30:15;;;;;;;15.5;9.9;;;;;;;-0.37;85.07617;938.7081;;;;
2023/01/21 08:32:40;;;;;;;14.5;9.6;;;;;;;-0.41;84.94434;938.7175;;;;
2023/01/21 08:35:12;;;;;;;15.4;10.3;;;;;;;-0.41;84.84473;938.7495;;;;
2023/01/21 08:38:40;;;;;;;14.1;9.8;;;;;;;-0.27;84.81738;938.7316;;;;
2023/01/21 08:41:09;;;;;;;16.6;10.8;;;;;;;-0.14;84.49805;938.733;;;;
2023/01/21 08:43:33;;;;;;;14.5;10.3;;;;;;;-0.02;84.02246;938.7587;;;;
2023/01/21 08:46:03;;;;;;;17.1;11;;;;;;;0.04;83.59863;938.7201;;;;
2023/01/21 08:48:33;;;;;;;16.5;11.5;;;;;;;0.03;83.20508;938.7775;;;;
2023/01/21 08:51:03;;;;;;;14.5;10.4;;;;;;;-0.05;83.0918;938.8206;;;;
2023/01/21 08:53:28;;;;;;;16.1;10.9;;;;;;;-0.02;83.0752;938.8322;;;;
2023/01/21 08:55:55;;;;;;;15.3;10.4;;;;;;;0;82.82129;938.8205;;;;
2023/01/21 08:58:20;;;;;;;16.5;11.5;;;;;;;0;82.55566;938.853;;;;
2023/01/21 09:00:50;;;;;;;16.5;10.8;;;;;;;0.01;82.57715;938.8235;;;;
2023/01/21 09:03:16;;;;;;;18.1;11.5;;;;;;;-0.18;82.5293;938.7272;;;;
2023/01/21 09:05:39;;;;;;;16.5;11.7;;;;;;;-0.26;83.33887;938.7073;;;;
2023/01/21 09:08:08;;;;;;;18.3;11.9;;;;;;;-0.51;83.53223;938.8169;;;;
2023/01/21 09:13:05;;;;;;;19.6;12;;;;;;;-0.72;85.49219;938.8003;;;;
2023/01/21 09:15:30;;;;;;;18.6;12.9;;;;;;;-0.45;85.1377;938.7881;;;;
2023/01/21 09:17:58;;;;;;;19.4;13.6;;;;;;;-0.36;84.45313;938.7098;;;;
2023/01/21 09:20:22;;;;;;;17.2;11.9;;;;;;;-0.36;84.16309;938.8359;;;;
2023/01/21 09:22:50;;;;;;;18.1;11.5;;;;;;;-0.38;83.69238;938.7849;;;;
2023/01/21 09:25:15;;;;;;;17.9;11.9;;;;;;;-0.48;84.86328;938.835;;;;
2023/01/21 09:27:40;;;;;;;18;11.9;;;;;;;-0.4;84.81445;938.7347;;;;
2023/01/21 09:30:08;;;;;;;18.6;11.6;;;;;;;-0.1;84.21777;938.7891;;;;
2023/01/21 09:32:33;;;;;;;26.8;17;;;;;;;0.04;83.46484;938.7776;;;;
2023/01/21 09:35:00;;;;;;;18.4;12.1;;;;;;;0.12;82.93457;938.8536;;;;
2023/01/21 09:37:36;;;;;;;19.8;12.8;;;;;;;0.33;82.6748;938.7794;;;;
2023/01/21 09:40:03;;;;;;;19.7;12;;;;;;;0.31;81.8125;938.8192;;;;
2023/01/21 09:42:28;;;;;;;19.8;11.5;;;;;;;0.43;81.35742;938.7125;;;;
2023/01/21 09:44:58;;;;;;;18;11.9;;;;;;;0.49;80.91992;938.7892;;;;
2023/01/21 09:47:23;;;;;;;17.8;12.1;;;;;;;0.42;80.93066;938.7879;;;;
2023/01/21 09:49:48;;;;;;;18.3;12;;;;;;;0.42;80.68555;938.8221;;;;
2023/01/21 09:52:17;;;;;;;21.1;12.1;;;;;;;0.55;80.65332;938.8027;;;;
2023/01/21 09:54:44;;;;;;;18.1;11.5;;;;;;;0.74;80.10938;938.7788;;;;
2023/01/21 09:57:09;;;;;;;18.6;11.8;;;;;;;0.73;79.68555;938.7708;;;;
2023/01/21 09:59:38;;;;;;;17;11.1;;;;;;;0.86;79.07129;938.7156;;;;
2023/01/21 10:02:03;;;;;;;17;11.9;;;;;;;0.66;79.31348;938.736;;;;
2023/01/21 10:04:28;;;;;;;17.2;11.4;;;;;;;0.65;79.5459;938.752;;;;
2023/01/21 10:06:54;;;;;;;17.3;11.4;;;;;;;0.65;79.84668;938.7921;;;;
2023/01/21 10:09:19;;;;;;;18.2;11.6;;;;;;;0.18;81.42969;938.7881;;;;
2023/01/21 10:11:44;;;;;;;19.8;12.4;;;;;;;0.47;81.19727;938.7136;;;;
2023/01/21 10:14:10;;;;;;;14.9;9.7;;;;;;;0.33;79.86523;938.7559;;;;
2023/01/21 10:16:35;;;;;;;14.2;9.8;;;;;;;0.32;80.27637;938.7413;;;;
2023/01/21 10:19:01;;;;;;;13.4;9.4;;;;;;;0.28;80.42383;938.7939;;;;
2023/01/21 10:21:26;;;;;;;14.1;9.5;;;;;;;0.29;80.38281;938.7678;;;;
2023/01/21 10:23:51;;;;;;;15.9;9.9;;;;;;;0.25;80.45215;938.7285;;;;
2023/01/21 10:26:17;;;;;;;16.1;10.5;;;;;;;0.15;80.67773;938.7499;;;;
2023/01/21 10:28:42;;;;;;;15.8;11.1;;;;;;;0.01;81.6543;938.8212;;;;
2023/01/21 10:31:07;;;;;;;14.1;9.8;;;;;;;-0.11;82.24316;938.7695;;;;
2023/01/21 10:33:33;;;;;;;15.3;10.3;;;;;;;-0.24;82.60742;938.7639;;;;
2023/01/21 10:35:58;;;;;;;14.3;9.4;;;;;;;-0.18;82.48438;938.759;;;;
2023/01/21 10:38:25;;;;;;;15.5;10.1;;;;;;;-0.13;81.97168;938.7422;;;;
2023/01/21 10:40:52;;;;;;;17.2;11.1;;;;;;;-0.2;82.7373;938.739;;;;
2023/01/21 10:43:16;;;;;;;15.6;10.3;;;;;;;-0.17;82.26563;938.7737;;;;
2023/01/21 10:45:41;;;;;;;14.8;10.5;;;;;;;-0.24;82.74121;938.7739;;;;
2023/01/21 10:48:07;;;;;;;17.3;11.7;;;;;;;;;;;;;
2023/01/21 10:50:32;;;;;;;18.1;11.5;;;;;;;;;;;;;
2023/01/21 10:52:59;;;;;;;15.9;10.7;;;;;;;;;;;;;
2023/01/21 10:55:24;;;;;;;16.2;11.5;;;;;;;;;;;;;
2023/01/21 10:57:49;;;;;;;16;10.6;;;;;;;;;;;;;
2023/01/21 11:00:14;;;;;;;16.8;10.6;;;;;;;;;;;;;
2023/01/21 11:02:39;;;;;;;15;10.3;;;;;;;;;;;;;
2023/01/21 11:05:05;;;;;;;13.1;9.4;;;;;;;;;;;;;
2023/01/21 11:07:30;;;;;;;12.2;8.8;;;;;;;;;;;;;
2023/01/21 11:09:56;;;;;;;12;8.4;;;;;;;;;;;;;
2023/01/21 11:12:23;;;;;;;11.2;8.5;;;;;;;;;;;;;
2023/01/21 11:14:47;;;;;;;12.2;8.4;;;;;;;;;;;;;
2023/01/21 11:17:12;;;;;;;11.5;7.8;;;;;;;;;;;;;
2023/01/21 11:19:37;;;;;;;11.4;8.6;;;;;;;;;;;;;
2023/01/21 11:22:03;;;;;;;11.7;8.3;;;;;;;;;;;;;
2023/01/21 11:24:28;;;;;;;11.9;8.3;;;;;;;;;;;;;
2023/01/21 11:26:53;;;;;;;13.5;9.1;;;;;;;;;;;;;
2023/01/21 11:29:18;;;;;;;13.1;8.9;;;;;;;;;;;;;
2023/01/21 11:31:43;;;;;;;12.6;9.1;;;;;;;;;;;;;
2023/01/21 11:34:08;;;;;;;12.4;9;;;;;;;;;;;;;
2023/01/21 11:36:33;;;;;;;12.3;9.1;;;;;;;;;;;;;
2023/01/21 11:39:00;;;;;;;13.2;9.1;;;;;;;;;;;;;
2023/01/21 11:41:25;;;;;;;14.7;9.2;;;;;;;;;;;;;
2023/01/21 11:43:50;;;;;;;12.2;9;;;;;;;;;;;;;
2023/01/21 11:46:16;;;;;;;13.8;9.1;;;;;;;;;;;;;
2023/01/21 11:48:42;;;;;;;14.5;9.8;;;;;;;;;;;;;
2023/01/21 11:51:07;;;;;;;13;9.1;;;;;;;;;;;;;
2023/01/21 11:53:33;;;;;;;13.9;9.5;;;;;;;;;;;;;
2023/01/21 11:55:58;;;;;;;13.2;9.1;;;;;;;;;;;;;
2023/01/21 11:58:23;;;;;;;13.2;8.4;;;;;;;;;;;;;
2023/01/21 12:00:49;;;;;;;14.2;9.2;;;;;;;;;;;;;
2023/01/21 12:03:13;;;;;;;13.6;9;;;;;;;;;;;;;
2023/01/21 12:05:38;;;;;;;12.9;8.9;;;;;;;;;;;;;
2023/01/21 12:08:05;;;;;;;13.8;9.2;;;;;;;;;;;;;
2023/01/21 12:10:30;;;;;;;12.2;8.7;;;;;;;;;;;;;
2023/01/21 12:12:55;;;;;;;12.8;8.7;;;;;;;;;;;;;
2023/01/21 12:15:20;;;;;;;13.8;9.1;;;;;;;;;;;;;
2023/01/21 12:17:47;;;;;;;13.2;8.8;;;;;;;;;;;;;
2023/01/21 12:20:12;;;;;;;13.1;8.3;;;;;;;;;;;;;
2023/01/21 12:22:37;;;;;;;11.1;7.9;;;;;;;;;;;;;
2023/01/21 12:25:02;;;;;;;12.6;7.2;;;;;;;;;;;;;
2023/01/21 12:27:27;;;;;;;11.6;8;;;;;;;;;;;;;
2023/01/21 12:29:52;;;;;;;12.9;8.1;;;;;;;;;;;;;
2023/01/21 12:32:18;;;;;;;11.1;8;;;;;;;;;;;;;
2023/01/21 12:34:44;;;;;;;12.4;8.6;;;;;;;;;;;;;
2023/01/21 12:37:09;;;;;;;13.5;8.8;;;;;;;;;;;;;
2023/01/21 12:39:35;;;;;;;13.4;8.1;;;;;;;;;;;;;
2023/01/21 12:42:01;;;;;;;12.7;8.3;;;;;;;;;;;;;
2023/01/21 12:44:26;;;;;;;13.1;8.8;;;;;;;;;;;;;
2023/01/21 12:46:52;;;;;;;14.9;8.9;;;;;;;;;;;;;
2023/01/21 12:49:17;;;;;;;14.1;9.4;;;;;;;;;;;;;
2023/01/21 12:51:44;;;;;;;14.6;9.6;;;;;;;;;;;;;
2023/01/21 12:54:09;;;;;;;15.6;9.1;;;;;;;;;;;;;
2023/01/21 12:56:35;;;;;;;14.2;9.3;;;;;;;;;;;;;
2023/01/21 12:59:00;;;;;;;13.5;8.8;;;;;;;;;;;;;
2023/01/21 13:01:25;;;;;;;15.2;9.3;;;;;;;;;;;;;
2023/01/21 13:03:50;;;;;;;13.6;9.2;;;;;;;;;;;;;
2023/01/21 13:06:16;;;;;;;14.6;9.4;;;;;;;;;;;;;
2023/01/21 13:08:42;;;;;;;15.3;9.3;;;;;;;;;;;;;
2023/01/21 13:11:07;;;;;;;14.9;9.4;;;;;;;;;;;;;
2023/01/21 13:13:33;;;;;;;14.5;9.9;;;;;;;;;;;;;
2023/01/21 13:15:58;;;;;;;13.4;9.5;;;;;;;;;;;;;
2023/01/21 13:18:23;;;;;;;14.2;9.1;;;;;;;;;;;;;
2023/01/21 13:20:49;;;;;;;13.7;9.1;;;;;;;;;;;;;
2023/01/21 13:23:14;;;;;;;13.4;9.2;;;;;;;;;;;;;
2023/01/21 13:25:41;;;;;;;15;9.5;;;;;;;;;;;;;
2023/01/21 13:28:06;;;;;;;16;9.9;;;;;;;;;;;;;
2023/01/21 13:30:32;;;;;;;15.5;9.6;;;;;;;;;;;;;
2023/01/21 13:32:56;;;;;;;16.2;9.6;;;;;;;;;;;;;
2023/01/21 13:35:22;;;;;;;16.5;10.3;;;;;;;;;;;;;
2023/01/21 13:37:47;;;;;;;16;10.3;;;;;;;;;;;;;
2023/01/21 13:40:12;;;;;;;18.1;11;;;;;;;;;;;;;
2023/01/21 13:42:37;;;;;;;17.9;10.8;;;;;;;;;;;;;
2023/01/21 13:45:04;;;;;;;16.8;10.7;;;;;;;;;;;;;
2023/01/21 13:47:28;;;;;;;17.4;10.6;;;;;;;;;;;;;
2023/01/21 13:49:53;;;;;;;17.8;11.7;;;;;;;;;;;;;
2023/01/21 13:52:18;;;;;;;18.7;11.3;;;;;;;;;;;;;
2023/01/21 13:54:43;;;;;;;18.2;10.9;;;;;;;;;;;;;
2023/01/21 13:57:09;;;;;;;18.3;11.4;;;;;;;;;;;;;
2023/01/21 13:59:36;;;;;;;15.9;10.7;;;;;;;;;;;;;
2023/01/21 14:02:01;;;;;;;17.9;11.4;;;;;;;;;;;;;
2023/01/21 14:04:29;;;;;;;18.6;11.4;;;;;;;;;;;;;
2023/01/21 14:06:54;;;;;;;17.3;11.3;;;;;;;;;;;;;
2023/01/21 14:09:19;;;;;;;17.7;11.4;;;;;;;;;;;;;
2023/01/21 14:11:44;;;;;;;18.1;11;;;;;;;;;;;;;
2023/01/21 14:14:12;;;;;;;18.3;11.9;;;;;;;;;;;;;
2023/01/21 14:16:38;;;;;;;19.7;12.5;;;;;;;;;;;;;
2023/01/21 14:19:03;;;;;;;17.9;11.2;;;;;;;;;;;;;
2023/01/21 14:21:28;;;;;;;18.5;11.4;;;;;;;;;;;;;
2023/01/21 14:24:52;;;;;;;21.2;12.9;;;;;;;;;;;;;
2023/01/21 14:27:17;;;;;;;18.6;11.9;;;;;;;;;;;;;
2023/01/21 14:29:43;;;;;;;17.2;10.9;;;;;;;;;;;;;
2023/01/21 14:32:07;;;;;;;19.1;12.2;;;;;;;;;;;;;
2023/01/21 14:34:32;;;;;;;21.1;12.1;;;;;;;;;;;;;
2023/01/21 14:36:57;;;;;;;21.6;12.5;;;;;;;;;;;;;
2023/01/21 14:39:22;;;;;;;18.6;12;;;;;;;;;;;;;
2023/01/21 14:41:48;;;;;;;18.8;12;;;;;;;;;;;;;
2023/01/21 14:44:15;;;;;;;20.1;13;;;;;;;;;;;;;
2023/01/21 14:46:40;;;;;;;18.9;11.4;;;;;;;;;;;;;
2023/01/21 14:49:07;;;;;;;16.9;11.2;;;;;;;;;;;;;
2023/01/21 14:51:31;;;;;;;16.2;10.6;;;;;;;;;;;;;
2023/01/21 14:53:56;;;;;;;18.9;10.5;;;;;;;;;;;;;
2023/01/21 14:56:22;;;;;;;18.7;12.2;;;;;;;;;;;;;
2023/01/21 14:58:47;;;;;;;17.6;11;;;;;;;;;;;;;
2023/01/21 15:01:12;;;;;;;15.4;10.4;;;;;;;;;;;;;
2023/01/21 15:03:37;;;;;;;26.7;16.5;;;;;;;;;;;;;
2023/01/21 15:06:03;;;;;;;25.1;15.4;;;;;;;;;;;;;
2023/01/21 15:08:28;;;;;;;24.2;14.1;;;;;;;;;;;;;
2023/01/21 15:10:54;;;;;;;24.1;14.2;;;;;;;;;;;;;
2023/01/21 15:13:18;;;;;;;21;12.3;;;;;;;;;;;;;
2023/01/21 15:15:43;;;;;;;19.1;12.1;;;;;;;;;;;;;
2023/01/21 15:18:08;;;;;;;17;10.8;;;;;;;;;;;;;
2023/01/21 15:20:34;;;;;;;19.7;12.1;;;;;;;;;;;;;
2023/01/21 15:22:59;;;;;;;49.6;26.7;;;;;;;;;;;;;
2023/01/21 15:25:24;;;;;;;21.7;13.3;;;;;;;;;;;;;
2023/01/21 15:27:49;;;;;;;27.3;16.6;;;;;;;;;;;;;
2023/01/21 15:30:14;;;;;;;23.2;15.1;;;;;;;;;;;;;
2023/01/21 15:32:39;;;;;;;21.6;12.9;;;;;;;;;;;;;
2023/01/21 15:35:04;;;;;;;20;12.4;;;;;;;;;;;;;
2023/01/21 15:37:29;;;;;;;20.6;11.5;;;;;;;;;;;;;
2023/01/21 15:39:59;;;;;;;22.6;13;;;;;;;;;;;;;
2023/01/21 15:42:22;;;;;;;20.8;13.3;;;;;;;;;;;;;
2023/01/21 15:44:47;;;;;;;21.9;14.1;;;;;;;;;;;;;
2023/01/21 15:47:13;;;;;;;22.1;14.1;;;;;;;;;;;;;
2023/01/21 15:49:38;;;;;;;21.2;14.1;;;;;;;;;;;;;
2023/01/21 15:52:03;;;;;;;18;12.3;;;;;;;;;;;;;
2023/01/21 15:54:28;;;;;;;20.8;13.6;;;;;;;;;;;;;
2023/01/21 15:56:53;;;;;;;22;13.9;;;;;;;;;;;;;
2023/01/21 15:59:18;;;;;;;18.7;12;;;;;;;;;;;;;
2023/01/21 16:01:43;;;;;;;20.1;12.7;;;;;;;;;;;;;
2023/01/21 16:04:10;;;;;;;22.8;15;;;;;;;;;;;;;